Pagrindinis puslapis
METAR-TAF:

METAR-TAF

Oro uostai :

Malė, Maldyvai

platuma: 04-12N, ilguma: 073-32E, Aukštis: 2 m

Dabartinis oras

Ataskaita buvo paskelbta 1 valandą ir 19 minutes, ne 20:00 UTC
Vėjas 16 kt iš Rytų/Šiaurės Rytų
Temperatūra 29°C
Drėgmė 79%
Slėgis 1011 hPa
Matomumas 10 km arba daugiau
Išsisklaidę debesys ne aukštis 1800 ft, aukštai iškilę kamuoliniai debesys.
Su prošvaistėmis ne aukštis 28000 ft

METAR: VRMM 092000Z 07016KT 9999 SCT018TCU BKN280 29/25 Q1011 NOSIG

Laikas: 02:19 (21:19 UTC)

Prognozė

Ataskaita buvo paskelbta 4 valandos ir 19 minutes, ne 17:00 UTC
Prognozė galioja nuo 09 metu 18 UTC su 10 metu 24 UTC
Vėjas 17 kt iš Rytų
Matomumas 10 km arba daugiau
Mažai debesys ne aukštis 1800 ft, aukštai iškilę kamuoliniai debesys.
Laikinai
nuo 09 metu 18 UTC su 09 metu 24 UTC
Mažai debesys ne aukštis 1800 ft, Liūtiniai kamuoliniai debesys.

TAF: VRMM 091700Z 0918/1024 08017KT 9999 FEW018TCU TEMPO 0918/0924 FEW018CB

Orai ataskaitas ir orų prognozės (METAR, TAF).

turimą stotys yra geltonos ir raudonos taškus žemėlapyje.

Perkelti pele per norėdami pamatyti stoties vardą.

Tada spustelėkite, norėdami matyti oro stebėjimo ir prognozės.

Norėdami pakeisti žemėlapį: spustelėkite ant žalios mygtukų su juodo kryžiaus žemyn,; žalią mygtuką su brūkšneliu, jei norite nutolinti; arba žalių rodyklių gretimoms žemėlapius.


METAR-TAF: